Time;durP1;ratioP1;P1;durP2;ratioP2;P2;SDS_P1;SDS_P2;PMS_P1;PMS_P2;Temp;Humidity;BMP_temperature;BMP_pressure;BME280_temperature;BME280_humidity;BME280_pressure;Samples;Min_cycle;Max_cycle;Signal;HPM_P1;HPM_P2
2022/03/31 00:02:17;;;;;;;0.10;0.10;;;;;;;1.67;100.00;100435.19;10389182;28;20029;-68
2022/03/31 00:07:17;;;;;;;0.10;0.10;;;;;;;1.67;100.00;100429.09;10405750;28;20029;-68
2022/03/31 00:12:18;;;;;;;0.10;0.10;;;;;;;1.66;100.00;100440.53;10407975;28;20022;-68
2022/03/31 00:17:18;;;;;;;0.03;0.03;;;;;;;1.66;100.00;100433.53;10386668;28;20264;-67
2022/03/31 00:22:19;;;;;;;0.10;0.10;;;;;;;1.65;100.00;100429.22;10368281;28;20033;-68
2022/03/31 00:27:19;;;;;;;0.10;0.10;;;;;;;1.65;100.00;100431.00;10366668;28;20119;-68
2022/03/31 00:32:19;;;;;;;0.00;0.00;;;;;;;1.62;100.00;100431.22;10368286;28;20112;-68
2022/03/31 00:37:20;;;;;;;0.00;0.00;;;;;;;1.61;100.00;100433.00;10394042;28;20334;-68
2022/03/31 00:42:21;;;;;;;0.10;0.10;;;;;;;1.59;100.00;100427.03;10407811;28;20266;-68
2022/03/31 00:47:22;;;;;;;0.10;0.10;;;;;;;1.58;100.00;100430.63;10368336;28;20719;-68
2022/03/31 00:52:22;;;;;;;0.10;0.10;;;;;;;1.56;100.00;100429.88;10369771;28;20026;-68
2022/03/31 00:57:22;;;;;;;0.08;0.08;;;;;;;1.55;100.00;100422.97;10402754;28;20465;-68
2022/03/31 01:02:25;;;;;;;0.10;0.10;;;;;;;1.52;100.00;100420.56;10367606;28;20030;-68
2022/03/31 01:07:26;;;;;;;0.10;0.10;;;;;;;1.46;100.00;100418.38;10365807;28;20779;-67
2022/03/31 01:12:27;;;;;;;0.00;0.00;;;;;;;1.37;100.00;100422.50;10367616;28;20033;-67
2022/03/31 01:17:27;;;;;;;0.10;0.10;;;;;;;1.29;100.00;100424.84;10380711;28;20018;-67
2022/03/31 01:22:29;;;;;;;0.10;0.10;;;;;;;1.22;100.00;100411.31;10398390;28;20408;-66
2022/03/31 01:27:30;;;;;;;0.15;0.15;;;;;;;1.21;100.00;100407.00;10365901;28;20017;-66
2022/03/31 01:32:30;;;;;;;0.10;0.10;;;;;;;1.17;100.00;100400.31;10374190;28;20473;-66
2022/03/31 01:37:31;;;;;;;0.10;0.10;;;;;;;1.12;100.00;100403.25;10386196;28;20029;-65
2022/03/31 01:42:31;;;;;;;0.10;0.10;;;;;;;1.09;100.00;100398.22;10415234;28;20034;-65
2022/03/31 01:47:32;;;;;;;0.15;0.15;;;;;;;1.08;100.00;100396.56;10414170;28;20283;-65
2022/03/31 01:52:32;;;;;;;0.10;0.10;;;;;;;1.03;100.00;100382.09;10407606;28;20038;-65
2022/03/31 01:57:32;;;;;;;0.10;0.10;;;;;;;0.99;100.00;100380.63;10372927;28;20104;-66
2022/03/31 02:02:33;;;;;;;0.10;0.10;;;;;;;0.97;100.00;100378.13;10373189;28;20388;-66
2022/03/31 02:07:34;;;;;;;0.00;0.00;;;;;;;0.92;100.00;100384.63;10372305;28;20393;-67
2022/03/31 02:12:34;;;;;;;0.10;0.10;;;;;;;0.86;100.00;100380.66;10372952;28;20710;-67
2022/03/31 02:17:35;;;;;;;0.10;0.10;;;;;;;0.80;100.00;100379.28;10372448;28;20033;-67
2022/03/31 02:22:35;;;;;;;0.10;0.10;;;;;;;0.74;100.00;100376.28;10372945;28;20026;-67
2022/03/31 02:27:37;;;;;;;0.10;0.10;;;;;;;0.71;100.00;100382.56;10377364;28;20033;-67
2022/03/31 02:32:37;;;;;;;0.08;0.08;;;;;;;0.68;100.00;100381.00;10375567;28;20101;-66
2022/03/31 02:37:38;;;;;;;0.00;0.00;;;;;;;0.67;100.00;100391.59;10369684;28;20619;-67
2022/03/31 02:42:38;;;;;;;0.00;0.00;;;;;;;0.65;100.00;100378.59;10370498;28;20022;-66
2022/03/31 02:47:39;;;;;;;0.10;0.10;;;;;;;0.60;100.00;100375.44;10370864;28;20025;-66
2022/03/31 02:58:02;;;;;;;0.00;0.00;;;;;;;0.51;100.00;100368.22;10370903;28;20084;-66
2022/03/31 03:03:03;;;;;;;0.10;0.10;;;;;;;0.45;100.00;100381.75;10376865;28;20018;-66
2022/03/31 03:08:04;;;;;;;0.10;0.10;;;;;;;0.38;100.00;100365.63;10411201;28;20098;-66
2022/03/31 03:13:04;;;;;;;0.20;0.20;;;;;;;0.33;100.00;100380.81;10367481;28;20116;-64
2022/03/31 03:18:05;;;;;;;0.10;0.10;;;;;;;0.24;100.00;100376.19;10369847;28;20034;-66
2022/03/31 03:23:06;;;;;;;0.10;0.10;;;;;;;0.19;100.00;100365.19;10369775;28;20105;-65
2022/03/31 03:28:06;;;;;;;0.13;0.13;;;;;;;0.11;100.00;100383.19;10368525;28;20326;-66
2022/03/31 03:33:06;;;;;;;0.10;0.10;;;;;;;0.06;100.00;100387.88;10368003;28;20029;-68
2022/03/31 03:38:07;;;;;;;0.00;0.00;;;;;;;0.01;100.00;100379.53;10373001;28;20265;-66
2022/03/31 03:43:09;;;;;;;0.10;0.10;;;;;;;-0.07;100.00;100383.47;10388059;28;20017;-66
2022/03/31 03:48:13;;;;;;;0.00;0.00;;;;;;;-0.19;100.00;100379.06;10401278;28;20048;-66
2022/03/31 03:53:13;;;;;;;0.10;0.10;;;;;;;-0.35;100.00;100386.22;10389287;28;20033;-68
2022/03/31 03:58:13;;;;;;;0.20;0.20;;;;;;;-0.49;100.00;100387.13;10365731;28;20022;-68
2022/03/31 04:03:14;;;;;;;0.10;0.10;;;;;;;-0.57;100.00;100368.47;10351222;28;20443;-66
2022/03/31 04:08:14;;;;;;;0.10;0.10;;;;;;;-0.63;100.00;100371.50;10385944;28;20393;-67
2022/03/31 04:13:15;;;;;;;0.10;0.10;;;;;;;-0.67;100.00;100391.75;10392036;28;20543;-67
2022/03/31 04:18:15;;;;;;;0.10;0.10;;;;;;;-0.70;100.00;100373.63;10397398;28;20017;-68
2022/03/31 04:23:15;;;;;;;0.20;0.20;;;;;;;-0.72;100.00;100373.75;10397393;28;20597;-68
2022/03/31 04:28:15;;;;;;;0.10;0.10;;;;;;;-0.73;100.00;100389.53;10351292;22;1048939;-69
2022/03/31 04:33:16;;;;;;;0.10;0.10;;;;;;;-0.75;100.00;100376.56;10356262;28;20045;-69
2022/03/31 04:38:16;;;;;;;0.20;0.20;;;;;;;-0.77;100.00;100390.66;10336323;28;20771;-68
2022/03/31 04:43:16;;;;;;;0.10;0.10;;;;;;;-0.78;100.00;100391.63;10363776;28;20341;-70
2022/03/31 04:48:17;;;;;;;0.03;0.03;;;;;;;-0.78;100.00;100397.69;10351536;28;20324;-67
2022/03/31 04:53:17;;;;;;;0.20;0.20;;;;;;;-0.81;100.00;100420.59;10360117;28;20313;-67
2022/03/31 04:58:18;;;;;;;0.10;0.10;;;;;;;-0.80;100.00;100398.72;10346048;28;20409;-69
2022/03/31 05:03:18;;;;;;;0.17;0.17;;;;;;;-0.82;100.00;100390.13;10344364;28;20161;-69
2022/03/31 05:08:18;;;;;;;0.20;0.20;;;;;;;-0.82;100.00;100424.09;10369674;28;20285;-67
2022/03/31 05:13:18;;;;;;;0.10;0.10;;;;;;;-145.06;100.00;63404.56;10359464;28;20167;-67
2022/03/31 05:18:19;;;;;;;0.10;0.10;;;;;;;-145.06;100.00;63404.56;10353251;28;20265;-67
2022/03/31 05:23:19;;;;;;;0.10;0.10;;;;;;;-145.06;100.00;63404.56;10353745;28;20021;-69
2022/03/31 05:28:19;;;;;;;0.17;0.17;;;;;;;-145.06;100.00;63404.56;10347946;28;20290;-68
2022/03/31 05:33:20;;;;;;;0.20;0.20;;;;;;;-145.06;100.00;63404.56;10344956;28;20257;-68
2022/03/31 05:38:20;;;;;;;0.20;0.20;;;;;;;-145.06;100.00;63404.56;10352617;28;20021;-67
2022/03/31 05:43:21;;;;;;;0.10;0.10;;;;;;;-145.06;100.00;63404.56;10355886;28;20174;-68
2022/03/31 05:48:21;;;;;;;0.10;0.10;;;;;;;-145.06;100.00;63404.56;10348507;28;20095;-68
2022/03/31 05:53:22;;;;;;;0.00;0.00;;;;;;;-145.06;100.00;63404.56;10358514;28;20037;-67
2022/03/31 05:58:22;;;;;;;0.10;0.10;;;;;;;-145.06;100.00;63404.56;10356474;28;20014;-70
2022/03/31 06:03:22;;;;;;;0.20;0.20;;;;;;;-145.06;100.00;63404.56;10354117;28;20037;-68
2022/03/31 06:08:23;;;;;;;0.10;0.10;;;;;;;-145.06;100.00;63404.56;10363248;28;20281;-69
2022/03/31 06:13:25;;;;;;;0.10;0.10;;;;;;;-145.06;100.00;63404.56;10352610;28;20030;-70
2022/03/31 06:18:26;;;;;;;0.10;0.10;;;;;;;-145.06;100.00;63404.56;10352222;28;20380;-70
2022/03/31 06:23:28;;;;;;;0.10;0.10;;;;;;;-145.06;100.00;63404.56;10348350;28;20488;-69
2022/03/31 06:28:29;;;;;;;0.20;0.20;;;;;;;-145.06;100.00;63404.56;10343270;28;20472;-67
2022/03/31 06:33:30;;;;;;;0.10;0.10;;;;;;;-145.06;100.00;63404.56;10370744;28;20018;-69
2022/03/31 06:38:30;;;;;;;0.10;0.10;;;;;;;-145.06;100.00;63404.56;10350171;28;20491;-69
2022/03/31 06:43:30;;;;;;;0.10;0.10;;;;;;;-145.06;100.00;63404.56;10346110;28;20501;-68
2022/03/31 06:48:31;;;;;;;0.10;0.10;;;;;;;-145.06;100.00;63404.56;10343842;28;20270;-69
2022/03/31 06:53:32;;;;;;;0.10;0.10;;;;;;;-145.06;100.00;63404.56;10343925;28;20022;-69
2022/03/31 06:58:33;;;;;;;0.10;0.10;;;;;;;-145.06;100.00;63404.56;10353855;28;20041;-67
2022/03/31 07:03:34;;;;;;;0.00;0.00;;;;;;;-145.06;100.00;63404.56;10355901;28;20050;-67
2022/03/31 07:08:35;;;;;;;0.00;0.00;;;;;;;-145.06;100.00;63404.56;10358745;28;20097;-69
2022/03/31 07:13:36;;;;;;;0.10;0.10;;;;;;;-145.06;100.00;63404.56;10356866;28;20443;-67
2022/03/31 07:18:36;;;;;;;0.10;0.10;;;;;;;-145.06;100.00;63404.56;10356836;28;20033;-66
2022/03/31 07:23:37;;;;;;;0.10;0.10;;;;;;;-145.06;100.00;63404.56;10338886;28;20032;-67
2022/03/31 07:28:37;;;;;;;0.10;0.10;;;;;;;-145.06;100.00;63404.56;10354364;28;20266;-67
2022/03/31 07:33:38;;;;;;;0.10;0.10;;;;;;;-145.06;100.00;63404.56;10353130;28;20498;-66
2022/03/31 07:38:39;;;;;;;0.10;0.10;;;;;;;-145.06;100.00;63404.56;10357358;28;20280;-66
2022/03/31 07:43:39;;;;;;;0.20;0.20;;;;;;;-145.06;100.00;63404.56;10345263;28;20042;-66
2022/03/31 07:48:40;;;;;;;0.10;0.10;;;;;;;-145.06;100.00;63404.56;10357984;28;20037;-66
2022/03/31 07:53:40;;;;;;;0.10;0.10;;;;;;;-145.06;100.00;63404.56;10345147;28;20436;-66
2022/03/31 07:58:40;;;;;;;0.10;0.10;;;;;;;-145.06;100.00;63404.56;10365727;28;20469;-66
2022/03/31 08:03:41;;;;;;;0.10;0.10;;;;;;;-145.06;100.00;63404.56;10352630;28;20462;-66
2022/03/31 08:08:41;;;;;;;0.10;0.10;;;;;;;-145.06;100.00;63404.56;10357439;28;20488;-66
2022/03/31 08:13:42;;;;;;;0.10;0.10;;;;;;;-145.06;100.00;63404.56;10345491;28;20484;-66
2022/03/31 08:18:42;;;;;;;0.17;0.17;;;;;;;-145.06;100.00;63404.56;10338602;28;20487;-66
2022/03/31 08:23:43;;;;;;;0.10;0.10;;;;;;;-145.06;100.00;63404.56;10330351;28;20034;-66
2022/03/31 08:28:44;;;;;;;0.10;0.10;;;;;;;-145.06;100.00;63404.56;10358543;28;20037;-66
2022/03/31 08:33:44;;;;;;;0.10;0.10;;;;;;;-145.06;100.00;63404.56;10335201;28;20265;-66
2022/03/31 08:38:45;;;;;;;0.10;0.10;;;;;;;-145.06;100.00;63404.56;10330502;28;20023;-66
2022/03/31 08:43:45;;;;;;;0.10;0.10;;;;;;;-145.06;100.00;63404.56;10329677;28;20037;-66
2022/03/31 08:48:46;;;;;;;0.10;0.10;;;;;;;-145.06;100.00;63404.56;10329671;28;20469;-65
2022/03/31 08:53:46;;;;;;;0.10;0.10;;;;;;;-145.06;100.00;63404.56;10350895;28;20032;-65
2022/03/31 08:58:47;;;;;;;0.10;0.10;;;;;;;-145.06;100.00;63404.56;10339496;28;20044;-66
2022/03/31 09:03:47;;;;;;;0.10;0.10;;;;;;;-145.06;100.00;63404.56;10364089;28;20029;-66
2022/03/31 09:08:55;;;;;;;0.10;0.10;;;;;;;-145.06;100.00;63404.56;10367329;28;20029;-67
2022/03/31 09:13:57;;;;;;;0.00;0.00;;;;;;;-145.06;100.00;63404.56;10332941;28;20034;-68
2022/03/31 09:19:09;;;;;;;0.10;0.10;;;;;;;-145.06;100.00;63404.56;10329234;28;20393;-68
2022/03/31 09:24:15;;;;;;;0.10;0.10;;;;;;;-145.06;100.00;63404.56;10328926;28;20054;-68
2022/03/31 09:29:19;;;;;;;0.00;0.00;;;;;;;-145.06;100.00;63404.56;10328878;28;20050;-68
2022/03/31 09:34:20;;;;;;;0.00;0.00;;;;;;;-145.06;100.00;63404.56;10341880;28;20110;-68
2022/03/31 09:39:22;;;;;;;0.10;0.10;;;;;;;-145.06;100.00;63404.56;10328777;28;20044;-68
2022/03/31 09:44:23;;;;;;;0.08;0.08;;;;;;;-145.06;100.00;63404.56;10350017;28;20022;-67
2022/03/31 09:49:28;;;;;;;0.10;0.10;;;;;;;-145.06;100.00;63404.56;10369189;28;20377;-67
2022/03/31 09:54:32;;;;;;;0.10;0.10;;;;;;;-145.06;100.00;63404.56;10372669;28;20278;-67
2022/03/31 09:59:35;;;;;;;0.10;0.10;;;;;;;-145.06;100.00;63404.56;10376514;28;20033;-67
2022/03/31 10:04:35;;;;;;;0.17;0.17;;;;;;;-145.06;100.00;63404.56;10375955;28;20037;-67
2022/03/31 10:09:39;;;;;;;0.10;0.10;;;;;;;-145.06;100.00;63404.56;10370670;28;20022;-68
2022/03/31 10:14:52;;;;;;;0.10;0.10;;;;;;;-145.06;100.00;63404.56;10373796;28;20033;-67
2022/03/31 10:19:54;;;;;;;0.10;0.10;;;;;;;-145.06;100.00;63404.56;10374887;28;20073;-68
2022/03/31 10:24:54;;;;;;;0.00;0.00;;;;;;;-145.06;100.00;63404.56;10374157;28;20032;-68
2022/03/31 10:30:08;;;;;;;0.10;0.10;;;;;;;-145.06;100.00;63404.56;10382998;23;20571;-68
2022/03/31 10:35:23;;;;;;;0.10;0.10;;;;;;;-145.06;100.00;63404.56;10370350;28;20257;-68
2022/03/31 10:40:38;;;;;;;0.10;0.10;;;;;;;-145.06;100.00;63404.56;10373969;28;20061;-68
2022/03/31 10:45:40;;;;;;;0.10;0.10;;;;;;;-145.06;100.00;63404.56;10373548;28;20456;-68
2022/03/31 10:50:41;;;;;;;0.10;0.10;;;;;;;-145.06;100.00;63404.56;10372907;28;20428;-69
2022/03/31 10:55:48;;;;;;;0.00;0.00;;;;;;;-145.06;100.00;63404.56;10373765;28;20085;-69
2022/03/31 11:00:50;;;;;;;0.10;0.10;;;;;;;-145.06;100.00;63404.56;10363812;28;20026;-67
2022/03/31 11:05:50;;;;;;;0.00;0.00;;;;;;;-145.06;100.00;63404.56;10371757;28;20044;-68
2022/03/31 11:10:53;;;;;;;0.00;0.00;;;;;;;-145.06;100.00;63404.56;10372056;28;20491;-67
2022/03/31 11:15:57;;;;;;;0.10;0.10;;;;;;;-145.06;100.00;63404.56;10372211;28;20680;-68
2022/03/31 11:21:00;;;;;;;0.10;0.10;;;;;;;-145.06;100.00;63404.56;10371753;28;20113;-68
2022/03/31 11:26:00;;;;;;;0.10;0.10;;;;;;;-145.06;100.00;63404.56;10371949;28;20033;-68
2022/03/31 11:31:01;;;;;;;0.03;0.03;;;;;;;-145.06;100.00;63404.56;10370594;28;20030;-67
2022/03/31 11:36:01;;;;;;;0.00;0.00;;;;;;;-145.06;100.00;63404.56;10371338;28;20049;-65
2022/03/31 11:41:02;;;;;;;0.00;0.00;;;;;;;-145.06;100.00;63404.56;10365784;28;20037;-65
2022/03/31 11:46:02;;;;;;;0.03;0.03;;;;;;;-145.06;100.00;63404.56;10369788;28;20026;-68
2022/03/31 11:51:05;;;;;;;0.00;0.00;;;;;;;-145.06;100.00;63404.56;10392344;28;20087;-68
2022/03/31 11:56:18;;;;;;;0.00;0.00;;;;;;;-145.06;100.00;63404.56;10380053;28;20022;-67
2022/03/31 12:01:22;;;;;;;0.00;0.00;;;;;;;-145.06;100.00;63404.56;10374479;28;20026;-67
2022/03/31 12:06:23;;;;;;;0.00;0.00;;;;;;;-145.06;100.00;63404.56;10369596;28;20105;-68
2022/03/31 12:11:25;;;;;;;0.00;0.00;;;;;;;-145.06;100.00;63404.56;10384332;28;20026;-68
2022/03/31 12:16:25;;;;;;;0.00;0.00;;;;;;;-145.06;100.00;63404.56;10385495;28;20009;-68
2022/03/31 12:21:27;;;;;;;0.00;0.00;;;;;;;-145.06;100.00;63404.56;10383977;28;20025;-68
2022/03/31 12:26:28;;;;;;;0.00;0.00;;;;;;;-145.06;100.00;63404.56;10368595;28;20124;-69
2022/03/31 12:31:31;;;;;;;0.00;0.00;;;;;;;-145.06;100.00;63404.56;10367687;28;20113;-68
2022/03/31 12:36:32;;;;;;;0.00;0.00;;;;;;;-145.06;100.00;63404.56;10391720;28;20025;-68
2022/03/31 12:41:38;;;;;;;0.00;0.00;;;;;;;-145.06;100.00;63404.56;10390948;28;20021;-68
2022/03/31 12:46:52;;;;;;;0.00;0.00;;;;;;;-145.06;100.00;63404.56;10403719;28;20083;-68
2022/03/31 12:51:57;;;;;;;0.00;0.00;;;;;;;-145.06;100.00;63404.56;10407926;28;20021;-67
2022/03/31 12:57:00;;;;;;;0.00;0.00;;;;;;;-145.06;100.00;63404.56;10399365;28;20083;-68
2022/03/31 13:02:07;;;;;;;0.00;0.00;;;;;;;-145.06;100.00;63404.56;10370216;28;20037;-67
2022/03/31 13:07:18;;;;;;;0.00;0.00;;;;;;;-145.06;100.00;63404.56;10363985;28;20033;-68
2022/03/31 13:12:18;;;;;;;0.00;0.00;;;;;;;-145.06;100.00;63404.56;10367266;28;20489;-68
2022/03/31 13:17:20;;;;;;;0.00;0.00;;;;;;;-145.06;100.00;63404.56;10375522;28;20308;-68
2022/03/31 13:22:28;;;;;;;0.00;0.00;;;;;;;-145.06;100.00;63404.56;10406070;28;20025;-68
2022/03/31 13:27:28;;;;;;;0.00;0.00;;;;;;;-145.06;100.00;63404.56;10400203;28;20108;-68
2022/03/31 13:32:28;;;;;;;0.00;0.00;;;;;;;-145.06;100.00;63404.56;10374186;28;20564;-67
2022/03/31 13:37:29;;;;;;;0.00;0.00;;;;;;;-145.06;100.00;63404.56;10379935;28;20044;-68
2022/03/31 13:42:29;;;;;;;0.00;0.00;;;;;;;-145.06;100.00;63404.56;10408376;28;20068;-68
2022/03/31 13:47:30;;;;;;;0.00;0.00;;;;;;;-145.06;100.00;63404.56;10387948;28;20687;-68
2022/03/31 13:52:30;;;;;;;0.00;0.00;;;;;;;-145.06;100.00;63404.56;10391324;28;20322;-68
2022/03/31 14:02:49;;;;;;;0.00;0.00;;;;;;;-145.06;100.00;63404.56;10372703;28;20026;-68
2022/03/31 14:07:50;;;;;;;0.00;0.00;;;;;;;-145.06;100.00;63404.56;10376318;28;20022;-68
2022/03/31 14:12:50;;;;;;;0.00;0.00;;;;;;;-145.06;100.00;63404.56;10397744;28;20022;-68
2022/03/31 14:17:54;;;;;;;0.00;0.00;;;;;;;-145.06;100.00;63404.56;10373873;28;20476;-68
2022/03/31 14:22:54;;;;;;;0.00;0.00;;;;;;;-145.06;100.00;63404.56;10370574;28;20021;-68
2022/03/31 14:27:55;;;;;;;0.00;0.00;;;;;;;-145.06;100.00;63404.56;10373528;28;20465;-68
2022/03/31 14:32:55;;;;;;;0.00;0.00;;;;;;;-145.06;100.00;63404.56;10377564;28;20018;-68
2022/03/31 14:37:56;;;;;;;0.00;0.00;;;;;;;-145.06;100.00;63404.56;10412883;28;20045;-68
2022/03/31 14:42:56;;;;;;;0.00;0.00;;;;;;;-145.06;100.00;63404.56;10398120;28;20022;-68
2022/03/31 14:47:56;;;;;;;0.00;0.00;;;;;;;-145.06;100.00;63404.56;10361857;28;20030;-68
2022/03/31 14:52:57;;;;;;;0.00;0.00;;;;;;;-145.06;100.00;63404.56;10382994;28;20045;-68
2022/03/31 14:57:58;;;;;;;0.00;0.00;;;;;;;-145.06;100.00;63404.56;10372586;28;20265;-68
2022/03/31 15:02:59;;;;;;;0.00;0.00;;;;;;;-145.06;100.00;63404.56;10371196;28;20527;-68
2022/03/31 15:07:59;;;;;;;0.00;0.00;;;;;;;-145.06;100.00;63404.56;10370505;28;20068;-69
2022/03/31 15:18:19;;;;;;;0.00;0.00;;;;;;;-145.06;100.00;63404.56;10391723;28;20029;-68
2022/03/31 15:23:19;;;;;;;0.10;0.10;;;;;;;-145.06;100.00;63404.56;10392622;28;20018;-68
2022/03/31 15:28:20;;;;;;;0.00;0.00;;;;;;;-145.06;100.00;63404.56;10370856;28;20018;-68
2022/03/31 15:33:20;;;;;;;0.00;0.00;;;;;;;-145.06;100.00;63404.56;10378870;28;20037;-68
2022/03/31 15:38:21;;;;;;;0.00;0.00;;;;;;;-145.06;100.00;63404.56;10396459;28;20022;-68
2022/03/31 15:43:21;;;;;;;0.00;0.00;;;;;;;-145.06;100.00;63404.56;10408224;28;20021;-68
2022/03/31 15:48:21;;;;;;;0.00;0.00;;;;;;;-145.06;100.00;63404.56;10393519;28;20037;-68
2022/03/31 15:53:22;;;;;;;0.00;0.00;;;;;;;-145.06;100.00;63404.56;10391670;28;20045;-69
2022/03/31 15:58:23;;;;;;;0.00;0.00;;;;;;;-145.06;100.00;63404.56;10400215;28;20100;-68
2022/03/31 16:03:24;;;;;;;0.00;0.00;;;;;;;-145.06;100.00;63404.56;10372684;28;20641;-68
2022/03/31 16:08:25;;;;;;;0.00;0.00;;;;;;;-145.06;100.00;63404.56;10384855;28;20040;-68
2022/03/31 16:13:25;;;;;;;0.00;0.00;;;;;;;-145.06;100.00;63404.56;10406927;28;20395;-68
2022/03/31 16:18:26;;;;;;;0.00;0.00;;;;;;;-145.06;100.00;63404.56;10376455;28;20480;-68
2022/03/31 16:23:42;;;;;;;0.00;0.00;;;;;;;-145.06;100.00;63404.56;10409148;28;20461;-68
2022/03/31 16:28:44;;;;;;;0.10;0.10;;;;;;;-145.06;100.00;63404.56;10385006;28;20034;-68
2022/03/31 16:33:45;;;;;;;0.03;0.03;;;;;;;-145.06;100.00;63404.56;10336063;22;20049;-69
2022/03/31 16:38:47;;;;;;;0.00;0.00;;;;;;;-145.06;100.00;63404.56;10348593;28;20014;-70
2022/03/31 16:43:48;;;;;;;0.00;0.00;;;;;;;-145.06;100.00;63404.56;10364512;28;20425;-69
2022/03/31 16:48:49;;;;;;;0.05;0.05;;;;;;;-145.06;100.00;63404.56;10343790;28;20023;-69
2022/03/31 16:53:49;;;;;;;0.03;0.03;;;;;;;-145.06;100.00;63404.56;10361469;28;20040;-69
2022/03/31 16:58:49;;;;;;;0.00;0.00;;;;;;;-145.06;100.00;63404.56;10361697;28;20468;-69
2022/03/31 17:03:50;;;;;;;0.10;0.10;;;;;;;-145.06;100.00;63404.56;10353735;28;20159;-69
2022/03/31 17:08:50;;;;;;;0.10;0.10;;;;;;;-145.06;100.00;63404.56;10321278;28;20262;-69
2022/03/31 17:13:50;;;;;;;0.00;0.00;;;;;;;-145.06;100.00;63404.56;10320646;28;20432;-69
2022/03/31 17:18:51;;;;;;;0.00;0.00;;;;;;;-145.06;100.00;63404.56;10321076;28;20344;-69
2022/03/31 17:23:52;;;;;;;0.00;0.00;;;;;;;-145.06;100.00;63404.56;10350504;28;20033;-69
2022/03/31 17:28:52;;;;;;;0.03;0.03;;;;;;;-145.06;100.00;63404.56;10363605;28;20269;-69
2022/03/31 17:33:52;;;;;;;0.10;0.10;;;;;;;-145.06;100.00;63404.56;10355053;28;20030;-69
2022/03/31 17:38:54;;;;;;;0.10;0.10;;;;;;;-145.06;100.00;63404.56;10362384;28;20264;-69
2022/03/31 17:43:54;;;;;;;0.00;0.00;;;;;;;-145.06;100.00;63404.56;10362350;28;20057;-69
2022/03/31 17:48:55;;;;;;;0.00;0.00;;;;;;;-145.06;100.00;63404.56;10363178;28;20080;-69
2022/03/31 17:53:55;;;;;;;0.00;0.00;;;;;;;-145.06;100.00;63404.56;10365580;28;20026;-69
2022/03/31 17:58:55;;;;;;;0.03;0.03;;;;;;;-145.06;100.00;63404.56;10365015;28;20280;-69
2022/03/31 18:03:56;;;;;;;0.03;0.03;;;;;;;-145.06;100.00;63404.56;10323019;28;20053;-69
2022/03/31 18:08:56;;;;;;;0.10;0.10;;;;;;;-145.06;100.00;63404.56;10320098;28;20057;-69
2022/03/31 18:13:56;;;;;;;0.00;0.00;;;;;;;-145.06;100.00;63404.56;10323949;28;20030;-70
2022/03/31 18:18:57;;;;;;;0.00;0.00;;;;;;;-145.06;100.00;63404.56;10328613;28;20029;-69
2022/03/31 18:23:57;;;;;;;0.10;0.10;;;;;;;-145.06;100.00;63404.56;10329012;28;20036;-69
2022/03/31 18:28:57;;;;;;;0.10;0.10;;;;;;;-145.06;100.00;63404.56;10328775;28;20483;-69
2022/03/31 18:34:00;;;;;;;0.03;0.03;;;;;;;-145.06;100.00;63404.56;10350352;28;20314;-69
2022/03/31 18:39:05;;;;;;;0.03;0.03;;;;;;;-145.06;100.00;63404.56;10368463;28;20045;-69
2022/03/31 18:44:05;;;;;;;;;;;;;;;-145.06;100.00;63404.56;10368360;28;20392;-69
2022/03/31 18:49:07;;;;;;;0.00;0.00;;;;;;;-145.06;100.00;63404.56;10367732;28;19909;-69
2022/03/31 18:54:12;;;;;;;0.00;0.00;;;;;;;-145.06;100.00;63404.56;10362271;28;20032;-69
2022/03/31 18:59:14;;;;;;;;;;;;;;;-145.06;100.00;63404.56;10368615;28;20026;-68
2022/03/31 19:04:15;;;;;;;0.10;0.10;;;;;;;-145.06;100.00;63404.56;10352648;28;19924;-70
2022/03/31 19:09:16;;;;;;;0.00;0.00;;;;;;;-145.06;100.00;63404.56;10333625;28;20022;-69
2022/03/31 19:14:18;;;;;;;0.20;0.20;;;;;;;-145.06;100.00;63404.56;10327871;28;20113;-70
2022/03/31 19:19:19;;;;;;;0.20;0.20;;;;;;;-145.06;100.00;63404.56;10326915;28;20397;-70
2022/03/31 19:24:20;;;;;;;0.10;0.10;;;;;;;-145.06;100.00;63404.56;10326681;28;20458;-69
2022/03/31 19:29:20;;;;;;;0.10;0.10;;;;;;;-145.06;100.00;63404.56;10334639;28;20030;-69
2022/03/31 19:34:21;;;;;;;0.10;0.10;;;;;;;-145.06;100.00;63404.56;10354235;28;20160;-69
2022/03/31 19:39:22;;;;;;;0.00;0.00;;;;;;;-145.06;100.00;63404.56;10365536;28;20048;-70
2022/03/31 19:44:22;;;;;;;0.10;0.10;;;;;;;-145.06;100.00;63404.56;10357106;28;20418;-70
2022/03/31 19:49:27;;;;;;;0.10;0.10;;;;;;;-145.06;100.00;63404.56;10321199;28;20029;-69
2022/03/31 19:54:29;;;;;;;0.00;0.00;;;;;;;-145.06;100.00;63404.56;10327303;28;20026;-70
2022/03/31 19:59:29;;;;;;;0.10;0.10;;;;;;;-145.06;100.00;63404.56;10338867;28;20030;-69
2022/03/31 20:04:29;;;;;;;0.00;0.00;;;;;;;-145.06;100.00;63404.56;10356061;28;20026;-70
2022/03/31 20:09:31;;;;;;;0.10;0.10;;;;;;;-145.06;100.00;63404.56;10332290;28;20092;-70
2022/03/31 20:14:32;;;;;;;0.10;0.10;;;;;;;-145.06;100.00;63404.56;10326102;28;20029;-70
2022/03/31 20:19:33;;;;;;;0.00;0.00;;;;;;;-145.06;100.00;63404.56;10347603;28;20094;-70
2022/03/31 20:24:33;;;;;;;0.00;0.00;;;;;;;-145.06;100.00;63404.56;10324832;28;20362;-70
2022/03/31 20:29:34;;;;;;;0.00;0.00;;;;;;;-145.06;100.00;63404.56;10323938;28;20026;-70
2022/03/31 20:34:37;;;;;;;0.03;0.03;;;;;;;-145.06;100.00;63404.56;10354956;28;20119;-70
2022/03/31 20:39:38;;;;;;;0.00;0.00;;;;;;;-145.06;100.00;63404.56;10343465;28;20030;-70
2022/03/31 20:44:38;;;;;;;0.00;0.00;;;;;;;-145.06;100.00;63404.56;10341918;28;20026;-70
2022/03/31 20:49:39;;;;;;;0.10;0.10;;;;;;;-145.06;100.00;63404.56;10363916;28;20025;-70
2022/03/31 20:54:39;;;;;;;0.10;0.10;;;;;;;-145.06;100.00;63404.56;10329508;28;20017;-70
2022/03/31 20:59:41;;;;;;;0.17;0.17;;;;;;;-145.06;100.00;63404.56;10308950;28;20358;-70
2022/03/31 21:04:42;;;;;;;0.00;0.00;;;;;;;-145.06;100.00;63404.56;10322262;28;20622;-70
2022/03/31 21:09:43;;;;;;;0.00;0.00;;;;;;;-145.06;100.00;63404.56;10313989;28;20022;-70
2022/03/31 21:14:46;;;;;;;0.10;0.10;;;;;;;-145.06;100.00;63404.56;10333339;28;20021;-70
2022/03/31 21:19:46;;;;;;;0.10;0.10;;;;;;;-145.06;100.00;63404.56;10363603;28;20021;-70
2022/03/31 21:24:47;;;;;;;0.00;0.00;;;;;;;-145.06;100.00;63404.56;10357078;28;20489;-70
2022/03/31 21:29:48;;;;;;;0.10;0.10;;;;;;;-145.06;100.00;63404.56;10331141;28;20014;-70
2022/03/31 21:34:48;;;;;;;0.00;0.00;;;;;;;-145.06;100.00;63404.56;10353624;28;20014;-70
2022/03/31 21:39:48;;;;;;;0.15;0.15;;;;;;;-145.06;100.00;63404.56;10363508;28;20033;-70
2022/03/31 21:44:50;;;;;;;0.10;0.10;;;;;;;-145.06;100.00;63404.56;10359197;28;20026;-70
2022/03/31 21:49:50;;;;;;;0.20;0.20;;;;;;;-145.06;100.00;63404.56;10366907;28;20026;-70
2022/03/31 21:54:51;;;;;;;0.10;0.10;;;;;;;-145.06;100.00;63404.56;10371819;28;20018;-70
2022/03/31 21:59:51;;;;;;;0.00;0.00;;;;;;;-145.06;100.00;63404.56;10367117;28;20325;-70
2022/03/31 22:04:52;;;;;;;0.00;0.00;;;;;;;-145.06;100.00;63404.56;10360829;28;20044;-70
2022/03/31 22:15:11;;;;;;;0.10;0.10;;;;;;;-145.06;100.00;63404.56;10370939;28;21007;-69
2022/03/31 22:20:11;;;;;;;0.00;0.00;;;;;;;-145.06;100.00;63404.56;10364217;28;20121;-69
2022/03/31 22:25:12;;;;;;;0.00;0.00;;;;;;;-145.06;100.00;63404.56;10345833;28;20026;-69
2022/03/31 22:30:12;;;;;;;0.00;0.00;;;;;;;-145.06;100.00;63404.56;10367606;28;20034;-69
2022/03/31 22:35:13;;;;;;;0.03;0.03;;;;;;;-145.06;100.00;63404.56;10355395;28;20018;-69
2022/03/31 22:40:13;;;;;;;0.10;0.10;;;;;;;-145.06;100.00;63404.56;10369087;28;20022;-70
2022/03/31 22:45:13;;;;;;;0.00;0.00;;;;;;;-145.06;100.00;63404.56;10368636;28;20288;-69
2022/03/31 22:50:13;;;;;;;0.10;0.10;;;;;;;-145.06;100.00;63404.56;10348320;28;20042;-69
2022/03/31 22:55:16;;;;;;;0.10;0.10;;;;;;;-145.06;100.00;63404.56;10327964;28;20673;-69
2022/03/31 23:00:16;;;;;;;0.10;0.10;;;;;;;-145.06;100.00;63404.56;10356213;28;20041;-69